Regal Star — ESCM — position and weather

sailwx.info

Track history (hours):
 
Tides and Currents Weather Stations Pressure Air Temp Water Temp Dewpoint Dewpoint Depression Visibility Wind Speed Wind Dir Waves Ship Positions

Regal Star

Last reported at 2017-May-25 22:01 UTC. Time now 2017-May-25 22:01 UTC.
Position N 59°23' E 021°59'.

Length 157 m; draft 6.2 m.

Type: Passenger vessel. MMSI: 276554000.

Date/timePositionNaut miles runAvg speedWind from/ knotsBaromVisibWave heightAir tempDewpointWater temp
2017-May-25 22:01N 59°23' E 021°59'64 3.8
2017-May-25 05:15N 59°20' E 024°05'3 9.3
2017-May-25 04:53N 59°22' E 023°59'615.0
2017-May-25 04:30N 59°23' E 023°48'714.8
2017-May-25 04:00N 59°23' E 023°34'815.4
2017-May-25 03:30N 59°23' E 023°19'815.6
2017-May-25 03:00N 59°23' E 023°03'815.6
2017-May-25 02:30N 59°23' E 022°48'915.9
2017-May-25 01:56N 59°23' E 022°30'1416.0
2017-May-25 01:04N 59°27' E 022°04'115.9
2017-May-25 01:00N 59°27' E 022°02'816.1
2017-May-25 00:30N 59°30' E 021°47'816.0
2017-May-25 00:00N 59°32' E 021°32'815.9
2017-May-24 23:30N 59°34' E 021°16'5015.6
2017-May-24 20:18N 59°45' E 019°40'516.1
2017-May-24 20:00N 59°46' E 019°31'815.6
2017-May-24 19:30N 59°45' E 019°16'612.0
2017-May-24 19:00N 59°43' E 019°04'0 0.0
2017-May-24 18:28N 59°43' E 019°04'0 0.0
2017-May-24 17:58N 59°43' E 019°04'0 0.0
2017-May-24 17:25N 59°43' E 019°04'0 0.0
2017-May-24 16:58N 59°43' E 019°04'0 0.0
2017-May-24 16:28N 59°43' E 019°04'0 0.0
2017-May-24 15:58N 59°43' E 019°04'0 0.0
2017-May-24 15:28N 59°43' E 019°04'0 0.0
2017-May-24 14:58N 59°43' E 019°04'0 0.0
2017-May-24 14:28N 59°43' E 019°04'0 0.0
2017-May-24 13:28N 59°43' E 019°04'0 0.0
2017-May-24 12:58N 59°43' E 019°04'0 0.0
2017-May-24 12:28N 59°43' E 019°04'0 0.0
2017-May-24 11:58N 59°43' E 019°04'0 0.0
2017-May-24 11:28N 59°43' E 019°04'0 0.0
2017-May-24 10:58N 59°43' E 019°04'0 0.0
2017-May-24 10:25N 59°43' E 019°04'0 0.0
2017-May-24 09:58N 59°43' E 019°04'0 0.0
2017-May-24 09:28N 59°43' E 019°04'0 0.0
2017-May-24 08:58N 59°43' E 019°04'0 0.0
2017-May-24 08:28N 59°43' E 019°04'0 0.0
2017-May-24 07:58N 59°43' E 019°04'0 0.0
2017-May-24 07:28N 59°43' E 019°04'0 0.0
2017-May-24 06:58N 59°43' E 019°04'0 0.0
2017-May-24 06:28N 59°43' E 019°04'0 0.0
2017-May-24 05:58N 59°43' E 019°04'0 0.0
2017-May-24 05:28N 59°43' E 019°04'0 0.0
2017-May-24 04:58N 59°43' E 019°04'0 0.0
2017-May-24 04:27N 59°43' E 019°04'3 6.2
2017-May-24 04:00N 59°44' E 019°09'815.3
2017-May-24 03:30N 59°46' E 019°24'715.0
2017-May-24 03:00N 59°45' E 019°38'815.1
2017-May-24 02:30N 59°42' E 019°52'714.9
2017-May-24 02:00N 59°38' E 020°05'4315.1
2017-May-23 23:10N 59°28' E 021°27'5614.8
2017-May-23 19:26N 59°22' E 023°15'715.0
2017-May-23 18:57N 59°22' E 023°29'715.0
2017-May-23 18:29N 59°22' E 023°43'815.5
2017-May-23 18:00N 59°22' E 023°58'4 0.3
2017-May-23 04:37N 59°23' E 023°51'413.0
2017-May-23 04:20N 59°23' E 023°44'513.9
2017-May-23 04:00N 59°23' E 023°35'814.0
2017-May-23 03:26N 59°23' E 023°19'614.2
2017-May-23 03:00N 59°23' E 023°07'914.1
2017-May-23 02:21N 59°23' E 022°49'513.7
2017-May-23 02:00N 59°23' E 022°39'3114.7
2017-May-22 23:56N 59°30' E 021°41'614.9
2017-May-22 23:30N 59°32' E 021°29'5715.6
2017-May-22 19:53N 59°45' E 019°40'616.1
2017-May-22 19:30N 59°46' E 019°28'815.4
2017-May-22 19:00N 59°44' E 019°13'5 9.6
2017-May-22 18:30N 59°43' E 019°04'0 0.0
2017-May-22 17:58N 59°43' E 019°04'0 0.0
2017-May-22 17:28N 59°43' E 019°04'0 0.0
2017-May-22 16:58N 59°43' E 019°04'0 0.0
2017-May-22 16:28N 59°43' E 019°04'0 0.0
2017-May-22 15:58N 59°43' E 019°04'0 0.0
2017-May-22 15:28N 59°43' E 019°04'0 0.0
2017-May-22 14:58N 59°43' E 019°04'0 0.0
2017-May-22 13:58N 59°43' E 019°04'0 0.0
2017-May-22 13:28N 59°43' E 019°04'0 0.0
2017-May-22 12:58N 59°43' E 019°04'0 0.0
2017-May-22 12:07N 59°43' E 019°04'0 0.0
2017-May-22 11:55N 59°43' E 019°04'0 0.0
2017-May-22 11:28N 59°43' E 019°04'0 0.0
2017-May-22 10:58N 59°43' E 019°04'0 0.0
2017-May-22 10:25N 59°43' E 019°04'0 0.0
2017-May-22 09:58N 59°43' E 019°04'0 0.0
2017-May-22 09:28N 59°43' E 019°04'0 0.0
2017-May-22 08:58N 59°43' E 019°04'75 7.5
2017-May-21 23:00N 59°27' E 021°28'815.4
2017-May-21 22:29N 59°26' E 021°43'715.5
2017-May-21 22:00N 59°24' E 021°57'815.7
2017-May-21 21:30N 59°22' E 022°13'915.6
2017-May-21 20:55N 59°20' E 022°30'715.7
2017-May-21 20:30N 59°20' E 022°43'815.9
2017-May-21 20:00N 59°21' E 022°58'815.8
2017-May-21 19:30N 59°21' E 023°14'39 4.5
2017-May-21 10:55N 59°28' E 021°58'716.5
2017-May-21 10:29N 59°30' E 021°45'816.4
2017-May-21 10:00N 59°32' E 021°30'1516.6
2017-May-21 09:07N 59°36' E 021°02'4116.2
2017-May-21 06:37N 59°45' E 019°43'616.7
2017-May-21 06:14N 59°46' E 019°31'815.9
2017-May-21 05:43N 59°44' E 019°15'5 3.2
2017-May-21 04:11N 59°43' E 019°05'210.3
2017-May-21 04:01N 59°44' E 019°08'814.9
2017-May-21 03:29N 59°46' E 019°23'612.8
2017-May-21 03:00N 59°45' E 019°35'713.0
2017-May-21 02:28N 59°43' E 019°49'1013.9
2017-May-21 01:44N 59°38' E 020°05'4315.3
2017-May-20 22:58N 59°28' E 021°27'1415.6
2017-May-20 22:02N 59°24' E 021°54'115.5
2017-May-20 21:58N 59°24' E 021°56'4415.4
2017-May-20 19:06N 59°22' E 023°23'415.8
2017-May-20 18:53N 59°22' E 023°30'3 0.2
2017-May-20 04:06N 59°23' E 023°35'114.3
2017-May-20 04:00N 59°23' E 023°32'914.9
2017-May-20 03:23N 59°23' E 023°14'614.9
2017-May-20 03:00N 59°23' E 023°03'1415.0
2017-May-20 02:05N 59°23' E 022°36'1815.7
2017-May-20 00:55N 59°27' E 022°01'715.7
2017-May-20 00:30N 59°29' E 021°49'815.7
2017-May-19 23:59N 59°32' E 021°33'815.9
2017-May-19 23:30N 59°34' E 021°19'915.9
2017-May-19 22:57N 59°36' E 021°02'4215.4
2017-May-19 20:14N 59°45' E 019°41'416.1
2017-May-19 20:00N 59°45' E 019°33'815.6
2017-May-19 19:30N 59°45' E 019°18'713.9
2017-May-19 19:00N 59°43' E 019°04'0 0.4
2017-May-19 18:28N 59°43' E 019°04'0 0.0
2017-May-19 17:58N 59°43' E 019°04'0 0.0
2017-May-19 17:28N 59°43' E 019°04'0 0.0
2017-May-19 16:58N 59°43' E 019°04'0 0.0
2017-May-19 16:28N 59°43' E 019°04'0 0.0
2017-May-19 15:58N 59°43' E 019°04'0 0.0
2017-May-19 15:28N 59°43' E 019°04'0 0.0
2017-May-19 14:58N 59°43' E 019°04'0 0.0
2017-May-19 13:58N 59°43' E 019°04'0 0.0
2017-May-19 11:52N 59°43' E 019°04'0 0.0
2017-May-19 11:22N 59°43' E 019°04'0 0.0
2017-May-19 10:58N 59°43' E 019°04'0 0.0
2017-May-19 10:28N 59°43' E 019°04'0 0.0
2017-May-19 09:55N 59°43' E 019°04'0 0.0
2017-May-19 09:28N 59°43' E 019°04'0 0.0
2017-May-19 08:58N 59°43' E 019°04'0 0.0
2017-May-19 08:28N 59°43' E 019°04'0 0.0
2017-May-19 07:58N 59°43' E 019°04'0 0.0
2017-May-19 07:28N 59°43' E 019°04'0 0.0
2017-May-19 06:58N 59°43' E 019°04'0 0.0
2017-May-19 06:28N 59°43' E 019°04'0 0.0
2017-May-19 05:58N 59°43' E 019°04'0 0.0
2017-May-19 05:28N 59°43' E 019°04'0 0.0
2017-May-19 04:58N 59°43' E 019°04'0 0.0
2017-May-19 04:31N 59°43' E 019°04'3 6.7
2017-May-19 04:01N 59°44' E 019°11'713.9
2017-May-19 03:30N 59°46' E 019°24'611.9
2017-May-19 03:00N 59°45' E 019°35'612.8
2017-May-19 02:30N 59°43' E 019°47'7414.7
2017-May-18 21:27N 59°23' E 022°08'28 1.5
2017-May-18 03:02N 59°23' E 023°03'115.9
2017-May-18 03:00N 59°23' E 023°02'4015.5
2017-May-18 00:24N 59°30' E 021°45'6615.8
2017-May-17 20:14N 59°45' E 019°38'416.2
2017-May-17 20:00N 59°46' E 019°31'815.5
2017-May-17 19:30N 59°45' E 019°15'611.9
2017-May-17 19:00N 59°43' E 019°04'0 0.0
2017-May-17 18:24N 59°43' E 019°04'0 0.0
2017-May-17 18:00N 59°43' E 019°04'0 0.0
2017-May-17 17:30N 59°43' E 019°04'0 0.0
2017-May-17 17:00N 59°43' E 019°04'0 0.0
2017-May-17 16:30N 59°43' E 019°04'0 0.0
2017-May-17 16:00N 59°43' E 019°04'0 0.0
2017-May-17 15:30N 59°43' E 019°04'0 0.0
2017-May-17 15:00N 59°43' E 019°04'0 0.0
2017-May-17 14:30N 59°43' E 019°04'0 0.0
2017-May-17 11:45N 59°43' E 019°04'0 0.0
2017-May-17 11:30N 59°43' E 019°04'0 0.0
2017-May-17 11:00N 59°43' E 019°04'0 0.0
2017-May-17 10:30N 59°43' E 019°04'0 0.0
2017-May-17 07:24N 59°43' E 019°04'0 0.0
2017-May-17 07:00N 59°43' E 019°04'0 0.0
2017-May-17 06:30N 59°43' E 019°04'0 0.0
2017-May-17 06:00N 59°43' E 019°04'0 0.0
2017-May-17 05:30N 59°43' E 019°04'0 0.0
2017-May-17 05:00N 59°43' E 019°04'0 0.0
2017-May-17 04:30N 59°43' E 019°04'2 5.0
2017-May-17 04:00N 59°44' E 019°09'714.6
2017-May-17 03:30N 59°46' E 019°22'612.1
2017-May-17 03:00N 59°45' E 019°34'612.5
2017-May-17 02:30N 59°43' E 019°46'713.0
2017-May-17 02:00N 59°40' E 019°58'713.3
2017-May-17 01:31N 59°37' E 020°09'814.1
2017-May-17 00:58N 59°35' E 020°24'914.2
2017-May-17 00:21N 59°33' E 020°41'514.7
2017-May-17 00:00N 59°32' E 020°51'815.9
2017-May-16 23:30N 59°30' E 021°05'1115.8
2017-May-16 22:50N 59°28' E 021°26'715.9
2017-May-16 22:22N 59°26' E 021°40'615.9
2017-May-16 22:00N 59°25' E 021°51'815.9
2017-May-16 21:30N 59°23' E 022°06'3216.1
2017-May-16 19:30N 59°21' E 023°09'916.4
2017-May-16 18:57N 59°22' E 023°27'1616.6
2017-May-16 18:00N 59°22' E 023°58'68 3.8
2017-May-16 00:07N 59°30' E 021°45'215.0
2017-May-16 00:01N 59°30' E 021°42'815.2
2017-May-15 23:29N 59°33' E 021°27'1315.5
2017-May-15 22:40N 59°36' E 021°03'  
Track history (hours):
 
Tides and Currents Weather Stations Pressure Air Temp Water Temp Dewpoint Dewpoint Depression Visibility Wind Speed Wind Dir Waves Ship Positions

Regal Star

Last reported at 2017-May-25 22:01 UTC. Time now 2017-May-25 22:01 UTC.
Position N 59°23' E 021°59'.

Length 157 m; draft 6.2 m.

Type: Passenger vessel. MMSI: 276554000.

Date/timePositionNaut miles runAvg speedWind from/ knotsBaromVisibWave heightAir tempDewpointWater temp
2017-May-25 22:01N 59°23' E 021°59'64 3.8
2017-May-25 05:15N 59°20' E 024°05'3 9.3
2017-May-25 04:53N 59°22' E 023°59'615.0
2017-May-25 04:30N 59°23' E 023°48'714.8
2017-May-25 04:00N 59°23' E 023°34'815.4
2017-May-25 03:30N 59°23' E 023°19'815.6
2017-May-25 03:00N 59°23' E 023°03'815.6
2017-May-25 02:30N 59°23' E 022°48'915.9
2017-May-25 01:56N 59°23' E 022°30'1416.0
2017-May-25 01:04N 59°27' E 022°04'115.9
2017-May-25 01:00N 59°27' E 022°02'816.1
2017-May-25 00:30N 59°30' E 021°47'816.0
2017-May-25 00:00N 59°32' E 021°32'815.9
2017-May-24 23:30N 59°34' E 021°16'5015.6
2017-May-24 20:18N 59°45' E 019°40'516.1
2017-May-24 20:00N 59°46' E 019°31'815.6
2017-May-24 19:30N 59°45' E 019°16'612.0
2017-May-24 19:00N 59°43' E 019°04'0 0.0
2017-May-24 18:28N 59°43' E 019°04'0 0.0
2017-May-24 17:58N 59°43' E 019°04'0 0.0
2017-May-24 17:25N 59°43' E 019°04'0 0.0
2017-May-24 16:58N 59°43' E 019°04'0 0.0
2017-May-24 16:28N 59°43' E 019°04'0 0.0
2017-May-24 15:58N 59°43' E 019°04'0 0.0
2017-May-24 15:28N 59°43' E 019°04'0 0.0
2017-May-24 14:58N 59°43' E 019°04'0 0.0
2017-May-24 14:28N 59°43' E 019°04'0 0.0
2017-May-24 13:28N 59°43' E 019°04'0 0.0
2017-May-24 12:58N 59°43' E 019°04'0 0.0
2017-May-24 12:28N 59°43' E 019°04'0 0.0
2017-May-24 11:58N 59°43' E 019°04'0 0.0
2017-May-24 11:28N 59°43' E 019°04'0 0.0
2017-May-24 10:58N 59°43' E 019°04'0 0.0
2017-May-24 10:25N 59°43' E 019°04'0 0.0
2017-May-24 09:58N 59°43' E 019°04'0 0.0
2017-May-24 09:28N 59°43' E 019°04'0 0.0
2017-May-24 08:58N 59°43' E 019°04'0 0.0
2017-May-24 08:28N 59°43' E 019°04'0 0.0
2017-May-24 07:58N 59°43' E 019°04'0 0.0
2017-May-24 07:28N 59°43' E 019°04'0 0.0
2017-May-24 06:58N 59°43' E 019°04'0 0.0
2017-May-24 06:28N 59°43' E 019°04'0 0.0
2017-May-24 05:58N 59°43' E 019°04'0 0.0
2017-May-24 05:28N 59°43' E 019°04'0 0.0
2017-May-24 04:58N 59°43' E 019°04'0 0.0
2017-May-24 04:27N 59°43' E 019°04'3 6.2
2017-May-24 04:00N 59°44' E 019°09'815.3
2017-May-24 03:30N 59°46' E 019°24'715.0
2017-May-24 03:00N 59°45' E 019°38'815.1
2017-May-24 02:30N 59°42' E 019°52'714.9
2017-May-24 02:00N 59°38' E 020°05'4315.1
2017-May-23 23:10N 59°28' E 021°27'5614.8
2017-May-23 19:26N 59°22' E 023°15'715.0
2017-May-23 18:57N 59°22' E 023°29'715.0
2017-May-23 18:29N 59°22' E 023°43'815.5
2017-May-23 18:00N 59°22' E 023°58'4 0.3
2017-May-23 04:37N 59°23' E 023°51'413.0
2017-May-23 04:20N 59°23' E 023°44'513.9
2017-May-23 04:00N 59°23' E 023°35'814.0
2017-May-23 03:26N 59°23' E 023°19'614.2
2017-May-23 03:00N 59°23' E 023°07'914.1
2017-May-23 02:21N 59°23' E 022°49'513.7
2017-May-23 02:00N 59°23' E 022°39'3114.7
2017-May-22 23:56N 59°30' E 021°41'614.9
2017-May-22 23:30N 59°32' E 021°29'5715.6
2017-May-22 19:53N 59°45' E 019°40'616.1
2017-May-22 19:30N 59°46' E 019°28'815.4
2017-May-22 19:00N 59°44' E 019°13'5 9.6
2017-May-22 18:30N 59°43' E 019°04'0 0.0
2017-May-22 17:58N 59°43' E 019°04'0 0.0
2017-May-22 17:28N 59°43' E 019°04'0 0.0
2017-May-22 16:58N 59°43' E 019°04'0 0.0
2017-May-22 16:28N 59°43' E 019°04'0 0.0
2017-May-22 15:58N 59°43' E 019°04'0 0.0
2017-May-22 15:28N 59°43' E 019°04'0 0.0
2017-May-22 14:58N 59°43' E 019°04'0 0.0
2017-May-22 13:58N 59°43' E 019°04'0 0.0
2017-May-22 13:28N 59°43' E 019°04'0 0.0
2017-May-22 12:58N 59°43' E 019°04'0 0.0
2017-May-22 12:07N 59°43' E 019°04'0 0.0
2017-May-22 11:55N 59°43' E 019°04'0 0.0
2017-May-22 11:28N 59°43' E 019°04'0 0.0
2017-May-22 10:58N 59°43' E 019°04'0 0.0
2017-May-22 10:25N 59°43' E 019°04'0 0.0
2017-May-22 09:58N 59°43' E 019°04'0 0.0
2017-May-22 09:28N 59°43' E 019°04'0 0.0
2017-May-22 08:58N 59°43' E 019°04'75 7.5
2017-May-21 23:00N 59°27' E 021°28'815.4
2017-May-21 22:29N 59°26' E 021°43'715.5
2017-May-21 22:00N 59°24' E 021°57'815.7
2017-May-21 21:30N 59°22' E 022°13'915.6
2017-May-21 20:55N 59°20' E 022°30'715.7
2017-May-21 20:30N 59°20' E 022°43'815.9
2017-May-21 20:00N 59°21' E 022°58'815.8
2017-May-21 19:30N 59°21' E 023°14'39 4.5
2017-May-21 10:55N 59°28' E 021°58'716.5
2017-May-21 10:29N 59°30' E 021°45'816.4
2017-May-21 10:00N 59°32' E 021°30'1516.6
2017-May-21 09:07N 59°36' E 021°02'4116.2
2017-May-21 06:37N 59°45' E 019°43'616.7
2017-May-21 06:14N 59°46' E 019°31'815.9
2017-May-21 05:43N 59°44' E 019°15'5 3.2
2017-May-21 04:11N 59°43' E 019°05'210.3
2017-May-21 04:01N 59°44' E 019°08'814.9
2017-May-21 03:29N 59°46' E 019°23'612.8
2017-May-21 03:00N 59°45' E 019°35'713.0
2017-May-21 02:28N 59°43' E 019°49'1013.9
2017-May-21 01:44N 59°38' E 020°05'4315.3
2017-May-20 22:58N 59°28' E 021°27'1415.6
2017-May-20 22:02N 59°24' E 021°54'115.5
2017-May-20 21:58N 59°24' E 021°56'4415.4
2017-May-20 19:06N 59°22' E 023°23'415.8
2017-May-20 18:53N 59°22' E 023°30'3 0.2
2017-May-20 04:06N 59°23' E 023°35'114.3
2017-May-20 04:00N 59°23' E 023°32'914.9
2017-May-20 03:23N 59°23' E 023°14'614.9
2017-May-20 03:00N 59°23' E 023°03'1415.0
2017-May-20 02:05N 59°23' E 022°36'1815.7
2017-May-20 00:55N 59°27' E 022°01'715.7
2017-May-20 00:30N 59°29' E 021°49'815.7
2017-May-19 23:59N 59°32' E 021°33'815.9
2017-May-19 23:30N 59°34' E 021°19'915.9
2017-May-19 22:57N 59°36' E 021°02'4215.4
2017-May-19 20:14N 59°45' E 019°41'416.1
2017-May-19 20:00N 59°45' E 019°33'815.6
2017-May-19 19:30N 59°45' E 019°18'713.9
2017-May-19 19:00N 59°43' E 019°04'0 0.4
2017-May-19 18:28N 59°43' E 019°04'0 0.0
2017-May-19 17:58N 59°43' E 019°04'0 0.0
2017-May-19 17:28N 59°43' E 019°04'0 0.0
2017-May-19 16:58N 59°43' E 019°04'0 0.0
2017-May-19 16:28N 59°43' E 019°04'0 0.0
2017-May-19 15:58N 59°43' E 019°04'0 0.0
2017-May-19 15:28N 59°43' E 019°04'0 0.0
2017-May-19 14:58N 59°43' E 019°04'0 0.0
2017-May-19 13:58N 59°43' E 019°04'0 0.0
2017-May-19 11:52N 59°43' E 019°04'0 0.0
2017-May-19 11:22N 59°43' E 019°04'0 0.0
2017-May-19 10:58N 59°43' E 019°04'0 0.0
2017-May-19 10:28N 59°43' E 019°04'0 0.0
2017-May-19 09:55N 59°43' E 019°04'0 0.0
2017-May-19 09:28N 59°43' E 019°04'0 0.0
2017-May-19 08:58N 59°43' E 019°04'0 0.0
2017-May-19 08:28N 59°43' E 019°04'0 0.0
2017-May-19 07:58N 59°43' E 019°04'0 0.0
2017-May-19 07:28N 59°43' E 019°04'0 0.0
2017-May-19 06:58N 59°43' E 019°04'0 0.0
2017-May-19 06:28N 59°43' E 019°04'0 0.0
2017-May-19 05:58N 59°43' E 019°04'0 0.0
2017-May-19 05:28N 59°43' E 019°04'0 0.0
2017-May-19 04:58N 59°43' E 019°04'0 0.0
2017-May-19 04:31N 59°43' E 019°04'3 6.7
2017-May-19 04:01N 59°44' E 019°11'713.9
2017-May-19 03:30N 59°46' E 019°24'611.9
2017-May-19 03:00N 59°45' E 019°35'612.8
2017-May-19 02:30N 59°43' E 019°47'7414.7
2017-May-18 21:27N 59°23' E 022°08'28 1.5
2017-May-18 03:02N 59°23' E 023°03'115.9
2017-May-18 03:00N 59°23' E 023°02'4015.5
2017-May-18 00:24N 59°30' E 021°45'6615.8
2017-May-17 20:14N 59°45' E 019°38'416.2
2017-May-17 20:00N 59°46' E 019°31'815.5
2017-May-17 19:30N 59°45' E 019°15'611.9
2017-May-17 19:00N 59°43' E 019°04'0 0.0
2017-May-17 18:24N 59°43' E 019°04'0 0.0
2017-May-17 18:00N 59°43' E 019°04'0 0.0
2017-May-17 17:30N 59°43' E 019°04'0 0.0
2017-May-17 17:00N 59°43' E 019°04'0 0.0
2017-May-17 16:30N 59°43' E 019°04'0 0.0
2017-May-17 16:00N 59°43' E 019°04'0 0.0
2017-May-17 15:30N 59°43' E 019°04'0 0.0
2017-May-17 15:00N 59°43' E 019°04'0 0.0
2017-May-17 14:30N 59°43' E 019°04'0 0.0
2017-May-17 11:45N 59°43' E 019°04'0 0.0
2017-May-17 11:30N 59°43' E 019°04'0 0.0
2017-May-17 11:00N 59°43' E 019°04'0 0.0
2017-May-17 10:30N 59°43' E 019°04'0 0.0
2017-May-17 07:24N 59°43' E 019°04'0 0.0
2017-May-17 07:00N 59°43' E 019°04'0 0.0
2017-May-17 06:30N 59°43' E 019°04'0 0.0
2017-May-17 06:00N 59°43' E 019°04'0 0.0
2017-May-17 05:30N 59°43' E 019°04'0 0.0
2017-May-17 05:00N 59°43' E 019°04'0 0.0
2017-May-17 04:30N 59°43' E 019°04'2 5.0
2017-May-17 04:00N 59°44' E 019°09'714.6
2017-May-17 03:30N 59°46' E 019°22'612.1
2017-May-17 03:00N 59°45' E 019°34'612.5
2017-May-17 02:30N 59°43' E 019°46'713.0
2017-May-17 02:00N 59°40' E 019°58'713.3
2017-May-17 01:31N 59°37' E 020°09'814.1
2017-May-17 00:58N 59°35' E 020°24'914.2
2017-May-17 00:21N 59°33' E 020°41'514.7
2017-May-17 00:00N 59°32' E 020°51'815.9
2017-May-16 23:30N 59°30' E 021°05'1115.8
2017-May-16 22:50N 59°28' E 021°26'715.9
2017-May-16 22:22N 59°26' E 021°40'615.9
2017-May-16 22:00N 59°25' E 021°51'815.9
2017-May-16 21:30N 59°23' E 022°06'3216.1
2017-May-16 19:30N 59°21' E 023°09'916.4
2017-May-16 18:57N 59°22' E 023°27'1616.6
2017-May-16 18:00N 59°22' E 023°58'68 3.8
2017-May-16 00:07N 59°30' E 021°45'215.0
2017-May-16 00:01N 59°30' E 021°42'815.2
2017-May-15 23:29N 59°33' E 021°27'1315.5
2017-May-15 22:40N 59°36' E 021°03'  

Dump ship's entire track history